CheckWX is a tool to help pilots better visualize weather data.  It is not intended as a substitute for an official pre-flight weather briefing.

07:33:34 UTC

KMUT METAR
Muscatine Municipal Airport
Muscatine, Iowa, USA
Current

19 mins ago

KMUT 180715Z AUTO 00000KT 1 1/4SM BR SCT020 15/14 A2998 RMK AO2
Observed
Jun-18 @ 07:15 UTC
Visibility
1 1/4 SM
Flight Rules
IFR
Conditions
Mist
Cloud Levels
  • Scattered at 2,000' AGL
Temperature
15°C / 59°F
Dewpoint
14°C / 57°F
Humidity
94%
Altimeter
29.98" Hg
Pressure
1015.22 hPa
Previous

39 mins ago

KMUT 180655Z AUTO 00000KT 4SM BR FEW020 15/14 A2999 RMK AO2
Observed
Jun-18 @ 06:55 UTC
Visibility
4 SM
Flight Rules
MVFR
Conditions
Mist
Cloud Levels
  • Few at 2,000' AGL
Temperature
15°C / 59°F
Dewpoint
14°C / 57°F
Humidity
94%
Altimeter
29.99" Hg
Pressure
1015.62 hPa
Previous

59 mins ago

KMUT 180635Z AUTO 29003KT 2SM BR FEW019 15/14 A3000 RMK AO2
Observed
Jun-18 @ 06:35 UTC
Wind
  • 290° at 3 KTS
Visibility
2 SM
Flight Rules
IFR
Conditions
Mist
Cloud Levels
  • Few at 1,900' AGL
Temperature
15°C / 59°F
Dewpoint
14°C / 57°F
Humidity
94%
Altimeter
30" Hg
Pressure
1015.92 hPa